Time;durP1;ratioP1;P1;durP2;ratioP2;P2;SDS_P1;SDS_P2;PMS_P1;PMS_P2;Temp;Humidity;BMP_temperature;BMP_pressure;BME280_temperature;BME280_humidity;BME280_pressure;Samples;Min_cycle;Max_cycle;Signal;HPM_P1;HPM_P2
2022/12/11 00:00:14;;;;;;;53.70;25.70;;;;;;;3.32;97.01;100896.00;10540444;28;20048;-85
2022/12/11 00:05:15;;;;;;;47.08;24.23;;;;;;;3.80;96.73;100967.03;10539762;28;20039;-84
2022/12/11 00:10:16;;;;;;;49.50;24.73;;;;;;;3.84;96.79;100979.88;10539928;28;20044;-85
2022/12/11 00:15:17;;;;;;;46.00;24.67;;;;;;;3.31;96.57;100884.66;10539755;28;20044;-85
2022/12/11 00:20:18;;;;;;;48.78;25.55;;;;;;;3.83;96.35;100974.75;10538380;28;20488;-85
2022/12/11 00:25:18;;;;;;;49.17;25.05;;;;;;;3.52;96.79;100921.72;10539891;28;20468;-84
2022/12/11 00:30:19;;;;;;;50.97;25.20;;;;;;;3.62;96.70;100917.50;10540064;28;20385;-84
2022/12/11 00:35:20;;;;;;;48.92;24.83;;;;;;;3.53;96.30;100896.28;10538800;28;20036;-84
2022/12/11 00:40:21;;;;;;;49.08;23.98;;;;;;;3.76;96.69;100928.78;10538305;28;20491;-85
2022/12/11 00:45:22;;;;;;;49.05;25.35;;;;;;;3.24;96.60;100830.09;10538644;28;20407;-85
2022/12/11 00:50:22;;;;;;;52.47;25.45;;;;;;;3.77;96.50;100915.56;10539294;28;20044;-83
2022/12/11 00:55:24;;;;;;;43.92;22.13;;;;;;;3.78;96.40;100916.41;10537998;28;20161;-84
2022/12/11 01:00:25;;;;;;;42.72;24.30;;;;;;;3.94;96.35;100932.72;10537121;28;20439;-85
2022/12/11 01:05:26;;;;;;;61.90;26.10;;;;;;;3.52;96.13;100855.19;10538188;28;20031;-84
2022/12/11 01:10:27;;;;;;;44.58;22.33;;;;;;;3.90;96.21;100915.50;10538321;28;20036;-84
2022/12/11 01:15:37;;;;;;;50.63;25.42;;;;;;;3.98;96.46;100918.44;10537477;28;20059;-85
2022/12/11 01:20:41;;;;;;;44.30;23.10;;;;;;;3.87;96.65;100898.16;10537848;28;20043;-84
2022/12/11 01:25:42;;;;;;;43.93;21.20;;;;;;;4.03;95.82;100915.44;10536830;28;20496;-84
2022/12/11 01:30:43;;;;;;;45.45;25.02;;;;;;;3.96;96.19;100909.81;10537566;28;20052;-84
2022/12/11 01:35:44;;;;;;;56.10;25.80;;;;;;;3.85;96.22;100891.34;10537917;28;20415;-84
2022/12/11 01:40:50;;;;;;;46.85;24.50;;;;;;;3.99;96.77;100925.34;10537767;28;20061;-84
2022/12/11 01:45:50;;;;;;;47.00;24.70;;;;;;;3.86;96.53;100903.56;10536457;28;20044;-85
2022/12/11 01:51:01;;;;;;;42.75;23.15;;;;;;;3.75;96.64;100880.66;10537493;28;20028;-84
2022/12/11 01:56:03;;;;;;;44.63;24.35;;;;;;;3.95;97.41;100917.78;10536084;28;20044;-84
2022/12/11 02:01:04;;;;;;;44.40;23.38;;;;;;;3.66;97.50;100874.28;10536882;28;20123;-84
2022/12/11 02:06:05;;;;;;;45.03;22.95;;;;;;;3.89;97.02;100925.19;10536809;28;20036;-85
2022/12/11 02:11:18;;;;;;;42.33;24.08;;;;;;;3.89;97.59;100919.09;10540572;28;20045;-85
2022/12/11 02:16:30;;;;;;;47.67;25.17;;;;;;;3.73;97.44;100898.31;10545166;28;20039;-84
2022/12/11 02:21:37;;;;;;;46.40;24.65;;;;;;;3.89;97.46;100916.47;10543848;28;20127;-85
2022/12/11 02:27:02;;;;;;;54.67;25.67;;;;;;;3.87;97.49;100921.81;10543106;28;20058;-84
2022/12/11 02:32:13;;;;;;;52.38;24.60;;;;;;;3.61;98.19;100870.31;10543080;28;20139;-85
2022/12/11 02:37:20;;;;;;;45.47;23.48;;;;;;;3.11;97.69;100788.09;10543575;28;20050;-84
2022/12/11 02:42:25;;;;;;;50.30;24.92;;;;;;;3.36;97.52;100832.66;10543059;28;20040;-85
2022/12/11 02:47:28;;;;;;;48.58;23.95;;;;;;;3.96;97.13;100927.38;10543447;28;20385;-85
2022/12/11 02:52:31;;;;;;;49.87;24.73;;;;;;;3.44;97.38;100840.00;10543442;28;20040;-84
2022/12/11 02:58:11;;;;;;;52.92;25.15;;;;;;;3.74;97.44;100884.25;10543165;28;20131;-86
2022/12/11 03:03:13;;;;;;;53.00;25.90;;;;;;;3.41;97.57;100824.44;10490673;28;20087;-86
2022/12/11 03:08:16;;;;;;;61.78;32.15;;;;;;;3.40;97.17;100828.84;10541986;28;20135;-84
2022/12/11 03:13:20;;;;;;;47.63;26.17;;;;;;;3.70;98.01;100887.19;10542691;28;20046;-85
2022/12/11 03:18:45;;;;;;;48.13;24.52;;;;;;;3.43;97.48;100827.81;10540814;28;20051;-84
2022/12/11 03:23:52;;;;;;;50.10;25.98;;;;;;;3.87;98.48;100895.53;10541716;28;20047;-85
2022/12/11 03:29:07;;;;;;;47.28;25.13;;;;;;;3.83;98.22;100882.75;10541886;28;20052;-85
2022/12/11 03:34:22;;;;;;;55.75;26.15;;;;;;;4.05;98.25;100922.28;10540673;28;20051;-84
2022/12/11 03:39:31;;;;;;;49.38;25.20;;;;;;;3.81;98.13;100884.63;10539515;28;20068;-83
2022/12/11 03:44:35;;;;;;;47.40;24.90;;;;;;;3.59;98.17;100846.78;10540495;28;20050;-85
2022/12/11 03:49:43;;;;;;;43.83;24.65;;;;;;;3.99;98.29;100917.47;10541483;28;20044;-84
2022/12/11 03:54:47;;;;;;;47.75;22.88;;;;;;;3.85;98.17;100892.19;10540497;28;20039;-84
2022/12/11 03:59:49;;;;;;;51.17;26.33;;;;;;;4.00;98.42;100911.25;10540194;28;20384;-83
2022/12/11 04:04:50;;;;;;;48.15;24.33;;;;;;;3.55;98.28;100829.53;10539544;28;20067;-84
2022/12/11 04:09:51;;;;;;;48.58;25.17;;;;;;;3.96;98.01;100883.53;10540142;28;20071;-83
2022/12/11 04:15:03;;;;;;;54.88;25.85;;;;;;;4.18;97.88;100913.50;10540404;28;20151;-83
2022/12/11 04:25:24;;;;;;;57.20;23.40;;;;;;;4.26;98.11;100900.63;10539430;28;20036;-84
2022/12/11 04:30:26;;;;;;;45.22;22.52;;;;;;;3.77;98.13;100820.97;10528875;28;20059;-84
2022/12/11 04:35:27;;;;;;;57.85;26.50;;;;;;;4.35;98.01;100915.72;10496799;28;20076;-85
2022/12/11 04:40:28;;;;;;;50.75;24.02;;;;;;;3.85;98.51;100830.88;10496598;28;20055;-85
2022/12/11 04:45:28;;;;;;;49.50;24.42;;;;;;;4.46;98.51;100925.47;10497328;28;20448;-85
2022/12/11 04:50:29;;;;;;;41.80;21.77;;;;;;;4.44;98.14;100915.03;10496577;28;20048;-84
2022/12/11 04:55:30;;;;;;;46.72;21.20;;;;;;;4.32;98.61;100887.03;10496538;28;20032;-86
2022/12/11 05:00:31;;;;;;;36.05;19.33;;;;;;;4.23;99.29;100843.81;10496168;28;20051;-87
2022/12/11 05:05:31;;;;;;;38.33;19.58;;;;;;;4.73;99.88;100897.06;10496910;28;20041;-86
2022/12/11 05:10:32;;;;;;;37.72;18.45;;;;;;;5.07;100.00;100922.59;10495533;28;20045;-83
2022/12/11 05:15:33;;;;;;;43.00;20.38;;;;;;;5.14;100.00;100929.88;10497310;28;20052;-84
2022/12/11 05:20:34;;;;;;;36.17;20.38;;;;;;;5.02;100.00;100894.81;10494581;28;20062;-85
2022/12/11 05:25:34;;;;;;;36.67;20.00;;;;;;;5.08;100.00;100906.66;10496501;28;20044;-85
2022/12/11 05:30:35;;;;;;;32.63;18.92;;;;;;;4.79;100.00;100840.47;10496864;28;20057;-84
2022/12/11 05:35:36;;;;;;;40.53;21.52;;;;;;;5.29;100.00;100917.31;10495787;28;20045;-82
2022/12/11 05:40:37;;;;;;;50.08;21.25;;;;;;;5.02;100.00;100857.94;10494111;28;20045;-84
2022/12/11 05:45:37;;;;;;;41.95;21.95;;;;;;;5.44;100.00;100920.56;10500388;28;20063;-84
2022/12/11 05:50:38;;;;;;;42.75;21.25;;;;;;;5.37;100.00;100893.84;10528920;28;20052;-85
2022/12/11 05:55:39;;;;;;;42.10;20.17;;;;;;;4.86;100.00;100811.88;10518554;28;20051;-84
2022/12/11 06:00:43;;;;;;;36.90;20.13;;;;;;;5.42;100.00;100889.06;10503706;28;20416;-84
2022/12/11 06:05:44;;;;;;;45.03;20.45;;;;;;;5.51;100.00;100899.84;10505997;28;20036;-82
2022/12/11 06:10:49;;;;;;;36.70;21.00;;;;;;;5.62;100.00;100905.09;10503072;28;20411;-77
2022/12/11 06:15:50;;;;;;;41.78;21.17;;;;;;;5.78;100.00;100934.56;10461487;28;20099;-79
2022/12/11 06:20:51;;;;;;;40.33;20.92;;;;;;;5.81;100.00;100942.22;10457285;28;20086;-85
2022/12/11 06:25:52;;;;;;;36.35;19.45;;;;;;;5.47;100.00;100878.16;10462280;28;20105;-90
2022/12/11 06:30:53;;;;;;;31.85;19.15;;;;;;;5.44;100.00;100871.34;10462084;28;20497;-84
2022/12/11 06:35:54;;;;;;;43.40;20.48;;;;;;;5.26;100.00;100838.53;10463388;28;20068;-86
2022/12/11 06:41:01;;;;;;;44.55;21.90;;;;;;;5.39;100.00;100846.31;10484507;28;20056;-80
2022/12/11 06:46:13;;;;;;;39.75;20.08;;;;;;;6.09;100.00;100943.50;10500871;28;20032;-82
2022/12/11 06:51:17;;;;;;;46.13;20.13;;;;;;;6.24;100.00;100970.44;10509710;28;20048;-78
2022/12/11 06:56:18;;;;;;;37.47;19.65;;;;;;;6.31;100.00;100952.28;10502486;28;20043;-74
2022/12/11 07:01:21;;;;;;;36.80;19.50;;;;;;;5.78;100.00;100863.38;10523537;28;20131;-74
2022/12/11 07:06:23;;;;;;;38.65;20.02;;;;;;;6.37;100.00;100952.66;10501175;28;20041;-75
2022/12/11 07:11:24;;;;;;;37.17;19.98;;;;;;;6.21;100.00;100925.81;10527150;28;20040;-76
2022/12/11 07:16:26;;;;;;;36.63;20.60;;;;;;;6.09;100.00;100909.19;10543531;28;20044;-85
2022/12/11 07:49:09;;;;;;;43.88;21.95;;;;;;;6.64;100.00;100927.53;10776131;22;20074;-89
2022/12/11 07:54:15;;;;;;;41.50;20.73;;;;;;;6.84;100.00;100937.28;10290968;28;20137;-83
2022/12/11 07:59:16;;;;;;;41.40;21.05;;;;;;;6.86;99.73;100930.06;10277074;28;20082;-84
2022/12/11 08:04:16;;;;;;;39.90;19.92;;;;;;;6.72;99.95;100909.25;10303960;28;20070;-82
2022/12/11 08:09:21;;;;;;;38.03;19.27;;;;;;;6.83;99.49;100932.97;10305801;28;20053;-74
2022/12/11 08:14:21;;;;;;;;;;;;;;;6.97;98.44;100933.59;10310309;28;20520;-82
2022/12/11 08:19:22;;;;;;;32.75;17.48;;;;;;;6.33;98.30;100840.38;10291895;28;19925;-76
2022/12/11 08:24:23;;;;;;;34.92;19.85;;;;;;;6.57;98.24;100900.00;10292639;28;20529;-76
2022/12/11 08:29:24;;;;;;;32.85;18.63;;;;;;;6.22;98.38;100827.25;10293537;28;20061;-73
2022/12/11 08:34:25;;;;;;;34.03;18.73;;;;;;;6.76;98.33;100904.56;10292850;28;20038;-74
2022/12/11 08:39:26;;;;;;;38.75;19.58;;;;;;;6.82;97.87;100912.81;10271507;28;20038;-73
2022/12/11 08:44:27;;;;;;;38.67;19.45;;;;;;;6.46;97.80;100839.34;10292190;28;20129;-76
2022/12/11 08:49:28;;;;;;;33.50;18.55;;;;;;;6.64;97.45;100872.09;10293232;28;20490;-78
2022/12/11 08:54:29;;;;;;;33.45;18.58;;;;;;;6.90;97.30;100906.88;10275958;28;20137;-74
2022/12/11 08:59:30;;;;;;;42.67;19.08;;;;;;;6.32;96.95;100822.06;10291464;28;20079;-78
2022/12/11 09:04:31;;;;;;;33.58;18.10;;;;;;;6.58;96.93;100849.72;10292450;28;20124;-79
2022/12/11 09:09:32;;;;;;;33.35;18.50;;;;;;;6.78;96.92;100869.13;10291816;28;20144;-78
2022/12/11 09:14:33;;;;;;;34.40;18.52;;;;;;;6.55;97.18;100822.72;10274867;28;20129;-75
2022/12/11 09:19:34;;;;;;;35.22;19.60;;;;;;;6.60;97.48;100831.09;10290995;28;20047;-78
2022/12/11 09:24:35;;;;;;;38.45;19.65;;;;;;;6.92;97.40;100861.84;10291862;28;20046;-77
2022/12/11 09:29:35;;;;;;;37.83;20.85;;;;;;;6.68;96.79;100801.44;10274588;28;20511;-79
2022/12/11 09:34:38;;;;;;;39.90;20.77;;;;;;;7.18;96.25;100873.66;10291295;28;20057;-75
2022/12/11 09:39:39;;;;;;;35.45;20.98;;;;;;;7.19;95.45;100869.22;10268674;28;20034;-75
2022/12/11 09:44:49;;;;;;;39.70;21.70;;;;;;;7.25;94.75;100858.94;10254683;28;20046;-79
2022/12/11 09:49:57;;;;;;;37.53;20.92;;;;;;;7.21;94.84;100841.69;10286253;28;20058;-78
2022/12/11 09:55:08;;;;;;;38.17;21.85;;;;;;;7.42;94.82;100856.59;10283827;28;20042;-78
2022/12/11 10:00:38;;;;;;;40.13;21.73;;;;;;;7.45;94.25;100840.47;10290422;28;20047;-78
2022/12/11 10:06:02;;;;;;;35.42;19.88;;;;;;;7.57;94.19;100844.69;10290985;28;20137;-77
2022/12/11 10:11:21;;;;;;;31.67;19.88;;;;;;;7.62;94.65;100845.09;10290562;28;20461;-77
2022/12/11 10:16:44;;;;;;;34.28;18.50;;;;;;;7.00;94.45;100727.28;10290318;28;20097;-77
2022/12/11 10:21:46;;;;;;;31.15;18.65;;;;;;;7.67;94.93;100832.31;10290236;28;20133;-76
2022/12/11 10:26:47;;;;;;;31.90;16.65;;;;;;;7.69;94.45;100833.03;10289946;28;20525;-76
2022/12/11 10:31:57;;;;;;;27.58;16.92;;;;;;;7.70;93.93;100818.00;10294305;28;20094;-76
2022/12/11 10:36:58;;;;;;;33.28;17.45;;;;;;;7.76;94.26;100826.19;10297355;28;20042;-74
2022/12/11 10:42:12;;;;;;;29.38;15.85;;;;;;;7.54;93.79;100800.84;10297436;28;20093;-77
2022/12/11 10:47:17;;;;;;;42.83;25.27;;;;;;;7.77;93.45;100806.72;10298396;28;20082;-76
2022/12/11 10:52:37;;;;;;;34.13;17.00;;;;;;;7.75;92.02;100800.75;10297383;28;20532;-76
2022/12/11 10:57:38;;;;;;;30.02;16.02;;;;;;;7.67;91.93;100789.19;10279556;28;20503;-77
2022/12/11 11:02:40;;;;;;;27.55;16.00;;;;;;;7.55;91.64;100762.88;10296471;28;20121;-77
2022/12/11 11:07:41;;;;;;;34.05;19.08;;;;;;;7.81;91.31;100785.28;10297385;28;20054;-72
2022/12/11 11:12:47;;;;;;;31.40;18.13;;;;;;;7.80;91.31;100800.31;10296676;28;20053;-77
2022/12/11 11:17:52;;;;;;;57.90;32.78;;;;;;;7.74;90.61;100771.78;10279153;28;20097;-75
2022/12/11 11:22:56;;;;;;;23.73;15.90;;;;;;;7.87;90.85;100782.09;10296094;28;20101;-75
2022/12/11 11:28:01;;;;;;;30.75;18.33;;;;;;;7.29;90.59;100682.44;10296655;28;20146;-73
2022/12/11 11:33:13;;;;;;;30.38;17.17;;;;;;;7.76;90.55;100768.03;10296066;28;20130;-76
2022/12/11 11:38:23;;;;;;;32.45;14.60;;;;;;;7.96;91.16;100789.19;10295695;28;20070;-76
2022/12/11 11:43:27;;;;;;;25.27;15.90;;;;;;;7.95;91.66;100780.41;10295218;28;20585;-75
2022/12/11 11:48:49;;;;;;;25.85;14.23;;;;;;;7.48;91.31;100713.34;10295426;28;20455;-76
2022/12/11 11:53:55;;;;;;;25.58;15.23;;;;;;;7.71;90.47;100764.94;10293007;28;20399;-76
2022/12/11 11:59:13;;;;;;;21.20;13.20;;;;;;;7.39;89.55;100703.56;10277873;28;20053;-78
2022/12/11 12:04:13;;;;;;;22.55;14.30;;;;;;;7.91;90.41;100791.41;10254521;29;20514;-76
2022/12/11 12:09:22;;;;;;;25.48;13.60;;;;;;;7.80;90.93;100784.44;10254510;29;20075;-77
2022/12/11 12:15:11;;;;;;;29.38;12.32;;;;;;;7.90;91.95;100795.03;10254330;29;20054;-75
2022/12/11 12:20:42;;;;;;;28.33;13.07;;;;;;;7.71;92.18;100774.69;10246580;29;20065;-83
2022/12/11 12:25:56;;;;;;;26.42;16.10;;;;;;;7.87;91.82;100793.50;10254551;29;20469;-80
2022/12/11 12:31:28;;;;;;;26.60;12.75;;;;;;;7.08;92.09;100667.53;10253013;29;20046;-79
2022/12/11 12:36:41;;;;;;;38.08;13.35;;;;;;;7.63;92.13;100758.69;10253911;29;20122;-77
2022/12/11 12:42:03;;;;;;;29.75;13.80;;;;;;;7.81;91.71;100788.78;10252682;29;20047;-78
2022/12/11 12:47:12;;;;;;;28.85;12.85;;;;;;;7.68;91.42;100770.50;10252548;28;20098;-77
2022/12/11 12:52:25;;;;;;;25.23;12.88;;;;;;;7.03;91.64;100672.41;10252440;28;20050;-78
2022/12/11 12:57:25;;;;;;;24.98;13.13;;;;;;;7.49;91.90;100752.84;10253104;29;20051;-80
2022/12/11 13:02:27;;;;;;;25.92;12.07;;;;;;;7.72;92.50;100794.91;10252821;29;20043;-77
2022/12/11 13:07:30;;;;;;;24.02;12.18;;;;;;;7.59;92.47;100795.16;10252568;29;20043;-78
2022/12/11 13:12:41;;;;;;;23.60;12.48;;;;;;;7.60;92.45;100788.03;10252735;29;20039;-78
2022/12/11 13:17:42;;;;;;;24.40;12.40;;;;;;;6.98;93.03;100689.66;10235167;29;20055;-83
2022/12/11 13:23:24;;;;;;;21.85;12.45;;;;;;;7.59;93.74;100789.84;10252038;29;20043;-78
2022/12/11 13:28:28;;;;;;;22.08;10.85;;;;;;;7.54;93.11;100794.75;10252338;29;20098;-75
2022/12/11 13:33:30;;;;;;;24.10;10.73;;;;;;;7.47;93.33;100786.50;10252526;29;20039;-80
2022/12/11 13:38:31;;;;;;;19.83;11.00;;;;;;;6.96;93.16;100705.63;10252091;29;20043;-78
2022/12/11 13:43:33;;;;;;;22.10;12.32;;;;;;;7.42;93.67;100780.81;10251765;29;20126;-73
2022/12/11 13:48:38;;;;;;;19.65;10.82;;;;;;;7.47;93.62;100791.78;10267720;28;20054;-74
2022/12/11 13:53:39;;;;;;;26.20;11.20;;;;;;;7.45;93.62;100790.25;10274525;28;20054;-75
2022/12/11 13:58:39;;;;;;;24.77;11.35;;;;;;;7.16;93.67;100743.47;10272461;28;20518;-75
2022/12/11 14:03:54;;;;;;;21.88;10.90;;;;;;;7.44;94.00;100799.16;10291754;28;20058;-76
2022/12/11 14:08:58;;;;;;;28.58;12.05;;;;;;;7.35;94.06;100773.56;10298518;28;20507;-76
2022/12/11 14:14:02;;;;;;;23.13;11.95;;;;;;;7.41;94.21;100783.56;10280981;28;20062;-75
2022/12/11 14:19:06;;;;;;;23.52;11.40;;;;;;;7.39;94.44;100774.94;10293588;28;20049;-73
2022/12/11 14:24:13;;;;;;;20.90;12.10;;;;;;;7.39;94.85;100780.22;10258269;29;20055;-70
2022/12/11 14:29:32;;;;;;;25.30;12.75;;;;;;;7.02;94.98;100712.16;10240671;29;20406;-71
2022/12/11 14:34:43;;;;;;;29.85;12.65;;;;;;;6.77;95.12;100687.09;10258929;29;20038;-72
2022/12/11 14:40:00;;;;;;;26.40;11.63;;;;;;;6.83;95.13;100686.56;10256785;29;20043;-70
2022/12/11 14:45:18;;;;;;;21.40;11.23;;;;;;;7.18;94.74;100746.84;10276862;28;20494;-70
2022/12/11 14:50:39;;;;;;;19.92;10.10;;;;;;;7.27;95.01;100771.59;10298086;28;20441;-70
2022/12/11 14:55:41;;;;;;;22.85;10.55;;;;;;;7.03;94.96;100737.59;10293546;28;20074;-71
2022/12/11 15:00:42;;;;;;;22.83;10.25;;;;;;;6.77;94.68;100702.94;10296831;28;20051;-72
2022/12/11 15:05:53;;;;;;;19.20;10.30;;;;;;;7.21;95.80;100766.84;10291906;28;20039;-72
2022/12/11 15:11:02;;;;;;;19.17;10.00;;;;;;;6.60;95.19;100673.56;10279150;28;20050;-72
2022/12/11 15:16:06;;;;;;;21.48;11.15;;;;;;;6.52;94.38;100670.75;10293135;28;20047;-72
2022/12/11 15:21:10;;;;;;;24.05;11.88;;;;;;;7.04;94.42;100755.97;10294419;28;20042;-72
2022/12/11 15:26:10;;;;;;;19.93;11.50;;;;;;;7.02;94.56;100754.44;10294090;28;20518;-72
2022/12/11 15:31:32;;;;;;;26.70;10.40;;;;;;;7.10;94.80;100765.16;10293440;28;20193;-72
2022/12/11 15:36:35;;;;;;;20.90;10.30;;;;;;;6.46;95.18;100663.38;10290421;28;20117;-71
2022/12/11 15:41:36;;;;;;;18.42;10.43;;;;;;;7.04;94.95;100749.84;10291868;28;20042;-72
2022/12/11 15:46:37;;;;;;;22.60;11.50;;;;;;;6.84;94.61;100727.81;10293609;28;20058;-72
2022/12/11 15:51:38;;;;;;;26.13;11.32;;;;;;;6.91;95.29;100741.31;10276416;28;20035;-73
2022/12/11 15:56:39;;;;;;;22.20;10.77;;;;;;;7.01;95.24;100761.50;10290367;28;20051;-72
2022/12/11 16:01:39;;;;;;;21.60;10.27;;;;;;;6.86;96.06;100745.22;10293306;28;20039;-72
2022/12/11 16:06:44;;;;;;;24.00;10.68;;;;;;;6.40;95.87;100672.66;10289155;28;20043;-72
2022/12/11 16:11:44;;;;;;;23.58;10.45;;;;;;;6.94;96.03;100762.19;10290961;28;20035;-71
2022/12/11 16:16:45;;;;;;;33.97;11.40;;;;;;;6.83;95.60;100748.13;10293152;28;20573;-72
2022/12/11 16:21:46;;;;;;;26.17;10.80;;;;;;;6.92;95.50;100753.56;10294457;28;20043;-71
2022/12/11 16:26:47;;;;;;;21.77;10.20;;;;;;;6.57;94.61;100692.28;10293012;28;20046;-72
2022/12/11 16:31:48;;;;;;;25.17;10.43;;;;;;;6.83;95.18;100749.94;10292426;28;20035;-71
2022/12/11 16:36:49;;;;;;;23.73;11.57;;;;;;;6.79;95.61;100749.38;10293251;28;20049;-72
2022/12/11 16:41:50;;;;;;;23.92;11.35;;;;;;;6.78;95.43;100739.75;10292831;28;20108;-71
2022/12/11 16:46:52;;;;;;;23.05;11.57;;;;;;;6.67;95.48;100726.66;10292656;28;20213;-72
2022/12/11 16:51:53;;;;;;;20.90;11.07;;;;;;;6.71;95.87;100730.69;10291661;28;20113;-72
2022/12/11 16:56:54;;;;;;;25.00;11.23;;;;;;;6.66;96.36;100734.72;10270851;28;20042;-70
2022/12/11 17:01:54;;;;;;;26.08;10.60;;;;;;;6.66;96.18;100746.09;10270794;28;20040;-70
2022/12/11 17:06:55;;;;;;;25.52;11.98;;;;;;;6.06;96.20;100658.06;10251919;28;20058;-72
2022/12/11 17:11:56;;;;;;;22.48;11.77;;;;;;;6.58;95.99;100733.59;10256806;28;20418;-74
2022/12/11 17:16:57;;;;;;;25.33;11.35;;;;;;;5.93;96.47;100631.91;10291515;28;20057;-71
2022/12/11 17:21:58;;;;;;;27.38;11.23;;;;;;;6.33;97.03;100697.91;10292472;28;20057;-72
2022/12/11 17:26:59;;;;;;;19.50;10.95;;;;;;;6.55;97.52;100733.84;10290944;28;20102;-71
2022/12/11 17:32:01;;;;;;;23.38;10.75;;;;;;;6.35;97.33;100700.41;10289572;28;20109;-70
2022/12/11 17:37:02;;;;;;;20.02;11.43;;;;;;;5.95;96.67;100645.78;10291400;28;20046;-71
2022/12/11 17:42:03;;;;;;;25.05;11.30;;;;;;;6.46;97.11;100731.13;10291501;28;20504;-72
2022/12/11 17:47:04;;;;;;;20.02;10.40;;;;;;;6.45;97.51;100734.75;10306013;28;20120;-71
2022/12/11 17:52:05;;;;;;;21.48;11.35;;;;;;;6.44;97.55;100746.28;10330997;28;20129;-71
2022/12/11 17:57:06;;;;;;;22.08;11.35;;;;;;;6.42;96.88;100743.78;10331134;28;20472;-70
2022/12/11 18:02:09;;;;;;;27.83;11.77;;;;;;;6.41;97.35;100742.09;10284426;28;20174;-71
2022/12/11 18:07:10;;;;;;;28.83;10.70;;;;;;;6.36;97.22;100720.53;10283875;28;20411;-72
2022/12/11 18:12:10;;;;;;;19.58;10.07;;;;;;;6.44;97.22;100733.09;10281129;28;20058;-72
2022/12/11 18:17:11;;;;;;;24.73;10.32;;;;;;;6.27;97.80;100702.88;10285750;28;20073;-74
2022/12/11 18:22:12;;;;;;;20.10;9.95;;;;;;;6.42;97.46;100729.75;10288894;28;20054;-73
2022/12/11 18:27:14;;;;;;;20.85;10.75;;;;;;;5.84;97.62;100632.66;10289281;28;20082;-73
2022/12/11 18:32:15;;;;;;;19.83;10.38;;;;;;;6.42;97.63;100727.94;10288701;28;20395;-73
2022/12/11 18:37:16;;;;;;;22.08;10.55;;;;;;;6.39;98.14;100723.75;10287073;28;20129;-73
2022/12/11 18:42:16;;;;;;;21.23;10.90;;;;;;;6.32;97.81;100716.50;10285284;28;20058;-72
2022/12/11 18:47:17;;;;;;;26.77;11.32;;;;;;;6.17;97.43;100682.56;10301449;28;20056;-73
2022/12/11 18:52:18;;;;;;;23.33;10.25;;;;;;;6.32;98.14;100714.69;10332215;28;20042;-71
2022/12/11 18:57:19;;;;;;;21.15;9.55;;;;;;;6.38;97.92;100730.00;10321615;28;20050;-70
2022/12/11 19:02:20;;;;;;;18.30;9.93;;;;;;;6.25;98.65;100703.00;10328826;28;20042;-72
2022/12/11 19:07:21;;;;;;;24.67;11.27;;;;;;;6.26;97.78;100707.31;10318936;28;20042;-73
2022/12/11 19:12:22;;;;;;;28.80;10.88;;;;;;;5.93;98.46;100658.28;10320714;28;20449;-72
2022/12/11 19:17:23;;;;;;;18.75;9.98;;;;;;;6.43;98.13;100726.13;10336730;28;20047;-71
2022/12/11 19:22:24;;;;;;;21.83;10.82;;;;;;;6.23;97.90;100690.91;10318753;28;20532;-72
2022/12/11 19:27:25;;;;;;;19.92;10.20;;;;;;;6.29;98.17;100706.22;10336820;28;20137;-71
2022/12/11 19:32:26;;;;;;;21.17;9.80;;;;;;;6.38;98.13;100714.19;10336485;28;20482;-72
2022/12/11 19:37:26;;;;;;;21.55;10.15;;;;;;;6.32;98.40;100704.16;10336070;28;20046;-71
2022/12/11 19:42:28;;;;;;;21.35;10.82;;;;;;;5.99;97.88;100641.94;10336442;28;20042;-72
2022/12/11 19:47:28;;;;;;;22.42;10.88;;;;;;;5.93;98.12;100638.00;10334264;28;20050;-74
2022/12/11 19:52:29;;;;;;;27.20;10.30;;;;;;;6.38;98.22;100708.91;10337095;28;20046;-71
2022/12/11 19:57:31;;;;;;;22.35;9.93;;;;;;;6.40;98.37;100708.75;10335080;28;20043;-70
2022/12/11 20:02:34;;;;;;;23.00;10.13;;;;;;;6.28;98.15;100681.66;10335064;28;20042;-70
2022/12/11 20:07:35;;;;;;;25.55;11.35;;;;;;;6.38;98.24;100711.53;10334635;28;20030;-71
2022/12/11 20:12:36;;;;;;;25.02;11.40;;;;;;;6.39;98.33;100715.84;10316945;28;20049;-73
2022/12/11 20:17:41;;;;;;;22.05;11.02;;;;;;;6.33;97.44;100699.69;10334558;28;20052;-72
2022/12/11 20:22:42;;;;;;;24.65;11.07;;;;;;;5.82;97.22;100605.59;10333447;28;20042;-72
2022/12/11 20:27:43;;;;;;;21.15;10.32;;;;;;;5.78;97.71;100593.63;10333849;28;20057;-71
2022/12/11 20:32:44;;;;;;;23.17;11.35;;;;;;;5.83;97.17;100601.97;10333884;28;20407;-72
2022/12/11 20:37:45;;;;;;;22.27;10.90;;;;;;;6.37;97.94;100683.50;10334288;28;20046;-72
2022/12/11 20:42:45;;;;;;;23.65;9.95;;;;;;;5.70;97.51;100565.28;10332956;28;20040;-72
2022/12/11 20:47:47;;;;;;;27.33;10.73;;;;;;;6.40;97.42;100683.22;10333153;28;20059;-71
2022/12/11 20:52:48;;;;;;;22.05;10.43;;;;;;;6.40;97.90;100677.94;10332643;28;20048;-71
2022/12/11 20:57:48;;;;;;;26.30;10.88;;;;;;;6.44;98.25;100688.22;10333522;28;20485;-71
2022/12/11 21:02:50;;;;;;;23.65;11.02;;;;;;;6.44;97.53;100693.50;10332027;28;20034;-72
2022/12/11 21:07:53;;;;;;;21.92;11.13;;;;;;;6.45;98.15;100695.16;10332740;28;20454;-72
2022/12/11 21:12:53;;;;;;;23.98;10.40;;;;;;;5.90;97.68;100580.22;10332077;28;20070;-72
2022/12/11 21:17:54;;;;;;;21.05;10.23;;;;;;;5.97;98.16;100572.66;10331318;28;20474;-73
2022/12/11 21:22:56;;;;;;;16.38;9.88;;;;;;;6.50;97.71;100663.94;10315263;28;20046;-72
2022/12/11 21:27:57;;;;;;;19.13;10.52;;;;;;;6.35;97.89;100626.53;10331504;28;20043;-73
2022/12/11 21:32:59;;;;;;;21.02;10.65;;;;;;;6.03;98.28;100569.47;10332130;28;20564;-72
2022/12/11 21:38:01;;;;;;;22.90;10.18;;;;;;;6.23;97.95;100607.31;10332053;28;20042;-72
2022/12/11 21:43:02;;;;;;;19.63;9.52;;;;;;;6.23;97.21;100611.78;10314025;28;20481;-73
2022/12/11 21:48:03;;;;;;;28.55;10.10;;;;;;;6.49;97.55;100639.38;10331110;28;20112;-73
2022/12/11 21:53:04;;;;;;;22.08;10.60;;;;;;;6.49;98.06;100634.09;10331209;28;20092;-72
2022/12/11 21:58:04;;;;;;;18.00;10.00;;;;;;;6.26;97.54;100600.94;10331378;28;20111;-72
2022/12/11 22:03:05;;;;;;;24.23;11.00;;;;;;;6.51;97.81;100642.69;10331958;28;20046;-72
2022/12/11 22:08:06;;;;;;;22.27;10.25;;;;;;;6.49;98.16;100639.38;10331855;28;20525;-72
2022/12/11 22:13:07;;;;;;;18.40;10.10;;;;;;;6.07;97.87;100562.13;10331300;28;20403;-72
2022/12/11 22:18:08;;;;;;;19.95;9.40;;;;;;;6.19;97.83;100590.06;10331026;28;20046;-72
2022/12/11 22:23:09;;;;;;;20.00;11.05;;;;;;;6.51;97.77;100636.56;10329782;28;20417;-72
2022/12/11 22:28:10;;;;;;;22.05;10.65;;;;;;;6.50;97.71;100619.09;10334785;28;20038;-72
2022/12/11 22:33:11;;;;;;;25.13;10.90;;;;;;;6.33;98.26;100597.63;10337933;28;20104;-72
2022/12/11 22:38:11;;;;;;;22.88;11.15;;;;;;;6.43;98.46;100621.41;10337763;28;20497;-72
2022/12/11 22:43:12;;;;;;;24.35;11.63;;;;;;;6.36;98.31;100607.09;10338157;28;20129;-72
2022/12/11 22:48:13;;;;;;;21.15;10.57;;;;;;;6.40;98.00;100598.78;10338431;28;20105;-72
2022/12/11 22:53:14;;;;;;;21.50;10.63;;;;;;;6.53;97.33;100616.16;10337897;28;20133;-72
2022/12/11 22:58:14;;;;;;;20.95;10.60;;;;;;;6.53;98.01;100613.53;10337612;28;20100;-71
2022/12/11 23:03:15;;;;;;;19.90;11.43;;;;;;;6.40;98.21;100608.47;10337240;28;20042;-73
2022/12/11 23:08:16;;;;;;;25.38;10.77;;;;;;;6.53;98.38;100629.38;10337853;28;20181;-71
2022/12/11 23:13:17;;;;;;;19.65;10.77;;;;;;;6.21;98.46;100587.31;10336451;28;20045;-73
2022/12/11 23:18:18;;;;;;;23.58;11.50;;;;;;;6.51;98.35;100620.75;10336654;28;20038;-71
2022/12/11 23:23:18;;;;;;;26.50;12.02;;;;;;;6.48;97.53;100618.38;10335327;28;20128;-72
2022/12/11 23:28:19;;;;;;;23.00;10.95;;;;;;;6.51;97.89;100621.56;10336056;28;20490;-72
2022/12/11 23:33:20;;;;;;;20.05;10.57;;;;;;;6.49;97.42;100605.06;10336237;28;20046;-71